Time;durP1;ratioP1;P1;durP2;ratioP2;P2;SDS_P1;SDS_P2;PMS_P1;PMS_P2;Temp;Humidity;BMP_temperature;BMP_pressure;BME280_temperature;BME280_humidity;BME280_pressure;Samples;Min_cycle;Max_cycle;Signal;HPM_P1;HPM_P2
2021/11/01 00:00:09;;;;;;;;;;;10.10;99.90;;;;;;5036735;28;19912;-78
2021/11/01 00:02:34;;;;;;;;;;;10.10;99.90;;;;;;5051925;28;19905;-79
2021/11/01 00:05:00;;;;;;;;;;;10.10;99.90;;;;;;5036759;28;19931;-78
2021/11/01 00:07:26;;;;;;;;;;;10.10;99.90;;;;;;5036574;28;19905;-78
2021/11/01 00:09:51;;;;;;;;;;;10.00;99.90;;;;;;5036310;28;19917;-78
2021/11/01 00:12:17;;;;;;;;;;;10.00;99.90;;;;;;5034918;28;20328;-79
2021/11/01 00:14:43;;;;;;;;;;;10.00;99.90;;;;;;5051682;28;19905;-77
2021/11/01 00:17:08;;;;;;;;;;;10.00;99.90;;;;;;5036250;28;19955;-77
2021/11/01 00:19:34;;;;;;;;;;;10.00;99.90;;;;;;5036401;28;19912;-78
2021/11/01 00:21:59;;;;;;;;;;;10.00;99.90;;;;;;5051578;28;20328;-80
2021/11/01 00:24:25;;;;;;;;;;;10.00;99.90;;;;;;5051495;28;19905;-79
2021/11/01 00:26:51;;;;;;;;;;;9.90;99.90;;;;;;5036124;28;20035;-79
2021/11/01 00:29:16;;;;;;;;;;;10.00;99.90;;;;;;5034841;28;19916;-78
2021/11/01 00:31:42;;;;;;;;;;;10.00;99.90;;;;;;5035989;28;20417;-78
2021/11/01 00:34:07;;;;;;;;;;;10.00;99.90;;;;;;5035991;28;20258;-78
2021/11/01 00:36:33;;;;;;;;;;;9.90;99.90;;;;;;5035937;28;19905;-78
2021/11/01 00:38:59;;;;;;;;;;;9.90;99.90;;;;;;5035774;28;19958;-78
2021/11/01 00:41:24;;;;;;;;;;;9.90;99.90;;;;;;5035983;28;19943;-79
2021/11/01 00:43:50;;;;;;;;;;;9.90;99.90;;;;;;5035829;28;20333;-78
2021/11/01 00:46:16;;;;;;;;;;;9.80;99.90;;;;;;5035974;28;19912;-77
2021/11/01 00:48:41;;;;;;;;;;;9.80;99.90;;;;;;5035694;28;20324;-79
2021/11/01 00:51:07;;;;;;;;;;;9.80;99.90;;;;;;5034398;28;19927;-79
2021/11/01 00:53:35;;;;;;;;;;;9.80;99.90;;;;;;5035643;28;19931;-78
2021/11/01 00:56:01;;;;;;;;;;;9.80;99.90;;;;;;5035874;28;19932;-78
2021/11/01 00:58:27;;;;;;;;;;;9.80;99.90;;;;;;5034196;28;19952;-78
2021/11/01 01:00:53;;;;;;;;;;;9.80;99.90;;;;;;5035806;28;20345;-78
2021/11/01 01:03:19;;;;;;;;;;;9.80;99.90;;;;;;5035486;28;19912;-79
2021/11/01 01:05:45;;;;;;;;;;;9.80;99.90;;;;;;5035442;28;19905;-78
2021/11/01 01:08:12;;;;;;;;;;;9.80;99.90;;;;;;5033973;28;19920;-79
2021/11/01 01:10:38;;;;;;;;;;;9.80;99.90;;;;;;5035241;28;20000;-78
2021/11/01 01:13:05;;;;;;;;;;;9.80;99.90;;;;;;5035328;28;19986;-79
2021/11/01 01:15:36;;;;;;;;;;;9.70;99.90;;;;;;5050560;28;20003;-78
2021/11/01 01:18:08;;;;;;;;;;;9.70;99.90;;;;;;5035193;28;19913;-78
2021/11/01 01:20:34;;;;;;;;;;;9.70;99.90;;;;;;5035598;28;19933;-78
2021/11/01 01:23:00;;;;;;;;;;;9.80;99.90;;;;;;5035077;28;19905;-79
2021/11/01 01:25:38;;;;;;;;;;;9.70;99.90;;;;;;5035059;28;20448;-77
2021/11/01 01:28:09;;;;;;;;;;;9.70;99.90;;;;;;5035120;28;19913;-78
2021/11/01 01:30:35;;;;;;;;;;;9.70;99.90;;;;;;5034936;28;20365;-78
2021/11/01 01:33:01;;;;;;;;;;;9.70;99.90;;;;;;5033610;28;19940;-79
2021/11/01 01:35:27;;;;;;;;;;;9.70;99.90;;;;;;5035424;28;19928;-79
2021/11/01 01:37:54;;;;;;;;;;;9.70;99.90;;;;;;5033436;28;19916;-79
2021/11/01 01:40:20;;;;;;;;;;;9.70;99.90;;;;;;5034883;28;19905;-78
2021/11/01 01:42:46;;;;;;;;;;;9.70;99.90;;;;;;5034742;28;19959;-78
2021/11/01 01:45:12;;;;;;;;;;;9.70;99.90;;;;;;5034694;28;19905;-78
2021/11/01 01:47:40;;;;;;;;;;;9.70;99.90;;;;;;5035056;28;19912;-78
2021/11/01 01:50:07;;;;;;;;;;;9.70;99.90;;;;;;5034565;28;19905;-78
2021/11/01 01:52:32;;;;;;;;;;;9.70;99.90;;;;;;5034411;28;20425;-79
2021/11/01 01:54:59;;;;;;;;;;;9.70;99.90;;;;;;5034700;28;19994;-78
2021/11/01 01:57:25;;;;;;;;;;;9.70;99.90;;;;;;5033036;28;19908;-79
2021/11/01 01:59:50;;;;;;;;;;;9.70;99.90;;;;;;5034789;28;19955;-79
2021/11/01 02:02:16;;;;;;;;;;;9.60;99.90;;;;;;5034332;28;19909;-79
2021/11/01 02:04:42;;;;;;;;;;;9.60;99.90;;;;;;5034401;28;19992;-79
2021/11/01 02:07:13;;;;;;;;;;;9.60;99.90;;;;;;5034335;28;19905;-78
2021/11/01 02:09:47;;;;;;;;;;;9.50;99.90;;;;;;5034007;28;19917;-78
2021/11/01 02:12:15;;;;;;;;;;;9.60;99.90;;;;;;5034393;28;19909;-77
2021/11/01 02:14:44;;;;;;;;;;;9.60;99.90;;;;;;5034173;28;19916;-79
2021/11/01 02:17:13;;;;;;;;;;;9.60;99.90;;;;;;5032850;28;20428;-79
2021/11/01 02:19:46;;;;;;;;;;;9.50;99.90;;;;;;5034048;28;19916;-79
2021/11/01 02:22:14;;;;;;;;;;;9.50;99.90;;;;;;5034511;28;19912;-78
2021/11/01 02:24:50;;;;;;;;;;;9.50;99.90;;;;;;5034118;28;19912;-79
2021/11/01 02:27:16;;;;;;;;;;;9.50;99.90;;;;;;5033998;28;19905;-79
2021/11/01 02:29:43;;;;;;;;;;;9.50;99.90;;;;;;5034140;28;19995;-79
2021/11/01 02:32:09;;;;;;;;;;;9.50;99.90;;;;;;5034164;28;19912;-78
2021/11/01 02:34:35;;;;;;;;;;;9.50;99.90;;;;;;5033832;28;19905;-79
2021/11/01 02:37:00;;;;;;;;;;;9.50;99.90;;;;;;5033843;28;20407;-78
2021/11/01 02:39:26;;;;;;;;;;;9.50;99.90;;;;;;5033723;28;19991;-79
2021/11/01 02:41:52;;;;;;;;;;;9.40;99.90;;;;;;5032459;28;19959;-79
2021/11/01 02:44:21;;;;;;;;;;;9.30;99.90;;;;;;5032410;28;20317;-78
2021/11/01 02:46:47;;;;;;;;;;;9.20;99.90;;;;;;5032112;28;19905;-78
2021/11/01 02:49:13;;;;;;;;;;;9.20;99.90;;;;;;5032351;28;19912;-80
2021/11/01 02:51:40;;;;;;;;;;;9.20;99.90;;;;;;5033576;28;19905;-78
2021/11/01 02:54:06;;;;;;;;;;;9.20;99.90;;;;;;5034004;28;20223;-78
2021/11/01 02:56:32;;;;;;;;;;;9.20;99.90;;;;;;5033734;28;20324;-78
2021/11/01 02:58:58;;;;;;;;;;;9.10;99.90;;;;;;5033640;28;19909;-78
2021/11/01 03:01:24;;;;;;;;;;;9.20;99.90;;;;;;5033606;28;19905;-79
2021/11/01 03:03:49;;;;;;;;;;;9.20;99.90;;;;;;5033791;28;19945;-78
2021/11/01 03:06:20;;;;;;;;;;;9.10;99.90;;;;;;5032185;28;20392;-78
2021/11/01 03:08:46;;;;;;;;;;;9.20;99.90;;;;;;5031973;28;19912;-79
2021/11/01 03:11:12;;;;;;;;;;;9.20;99.90;;;;;;5033281;28;19916;-79
2021/11/01 03:13:38;;;;;;;;;;;9.20;99.90;;;;;;5032444;28;19905;-79
2021/11/01 03:16:04;;;;;;;;;;;9.20;99.90;;;;;;5033437;28;20377;-80
2021/11/01 03:18:51;;;;;;;;;;;9.20;99.90;;;;;;5037411;28;20012;-78
2021/11/01 03:21:18;;;;;;;;;;;9.20;99.90;;;;;;5037427;28;19905;-78
2021/11/01 03:23:46;;;;;;;;;;;9.20;99.90;;;;;;5037749;28;20254;-78
2021/11/01 03:26:15;;;;;;;;;;;9.20;99.90;;;;;;5037456;28;19913;-79
2021/11/01 03:28:41;;;;;;;;;;;9.20;99.90;;;;;;5035979;28;19905;-79
2021/11/01 03:31:07;;;;;;;;;;;9.30;99.90;;;;;;5035939;28;19962;-79
2021/11/01 03:33:37;;;;;;;;;;;9.30;99.90;;;;;;5037175;28;19905;-79
2021/11/01 03:36:04;;;;;;;;;;;9.30;99.90;;;;;;5037734;28;19936;-78
2021/11/01 03:38:31;;;;;;;;;;;9.30;99.90;;;;;;5036861;28;19955;-79
2021/11/01 03:40:57;;;;;;;;;;;9.30;99.90;;;;;;5035800;28;20380;-79
2021/11/01 03:43:33;;;;;;;;;;;9.30;99.90;;;;;;5037030;28;19955;-78
2021/11/01 03:45:59;;;;;;;;;;;9.40;99.90;;;;;;5037429;28;20351;-79
2021/11/01 03:48:27;;;;;;;;;;;9.40;99.90;;;;;;5035638;28;19905;-79
2021/11/01 03:51:03;;;;;;;;;;;9.40;99.90;;;;;;5035601;28;20383;-78
2021/11/01 03:53:29;;;;;;;;;;;9.50;99.90;;;;;;5037292;28;19970;-78
2021/11/01 03:55:55;;;;;;;;;;;9.50;99.90;;;;;;5036772;28;20381;-78
2021/11/01 03:58:20;;;;;;;;;;;9.50;99.90;;;;;;5036744;28;19962;-79
2021/11/01 04:00:46;;;;;;;;;;;9.50;99.90;;;;;;5036981;28;19905;-76
2021/11/01 04:03:12;;;;;;;;;;;9.40;99.90;;;;;;5036642;28;19959;-78
2021/11/01 04:05:38;;;;;;;;;;;9.40;99.90;;;;;;5036585;28;19912;-78
2021/11/01 04:08:04;;;;;;;;;;;9.50;99.90;;;;;;5036666;28;19909;-78
2021/11/01 04:10:29;;;;;;;;;;;9.50;99.90;;;;;;5035868;28;20399;-79
2021/11/01 04:12:55;;;;;;;;;;;9.50;99.90;;;;;;5035232;28;19905;-78
2021/11/01 04:15:23;;;;;;;;;;;9.40;99.90;;;;;;5035285;28;19909;-78
2021/11/01 04:17:54;;;;;;;;;;;9.40;99.90;;;;;;5035090;28;19963;-78
2021/11/01 04:22:48;;;;;;;;;;;9.30;99.90;;;;;;5035353;28;19905;-80
2021/11/01 04:25:14;;;;;;;;;;;9.30;99.90;;;;;;5035049;28;19905;-79
2021/11/01 04:27:40;;;;;;;;;;;9.30;99.90;;;;;;5049904;28;19919;-78
2021/11/01 04:30:07;;;;;;;;;;;9.30;99.90;;;;;;5035215;28;19905;-78
2021/11/01 04:32:40;;;;;;;;;;;9.20;99.90;;;;;;5033683;28;19905;-79
2021/11/01 04:35:18;;;;;;;;;;;9.20;99.90;;;;;;5033356;28;19912;-78
2021/11/01 04:37:45;;;;;;;;;;;9.20;99.90;;;;;;5034884;28;19909;-79
2021/11/01 04:40:22;;;;;;;;;;;9.20;99.90;;;;;;5034747;28;20301;-78
2021/11/01 04:53:27;;;;;;;;;;;9.20;99.90;;;;;;5034461;28;19959;-78
2021/11/01 04:55:54;;;;;;;;;;;9.10;99.90;;;;;;5034626;28;20387;-79
2021/11/01 04:58:21;;;;;;;;;;;9.10;99.90;;;;;;5049869;28;20349;-79
2021/11/01 05:00:48;;;;;;;;;;;9.10;99.90;;;;;;5034556;28;20289;-79
2021/11/01 05:05:39;;;;;;;;;;;9.20;99.90;;;;;;5034772;28;19912;-78
2021/11/01 05:08:05;;;;;;;;;;;9.20;99.90;;;;;;5034369;28;19905;-78
2021/11/01 05:10:38;;;;;;;;;;;9.20;99.90;;;;;;4983803;28;1472858;-77
2021/11/01 05:13:06;;;;;;;;;;;9.20;99.90;;;;;;5033811;28;19909;-80
2021/11/01 05:15:39;;;;;;;;;;;9.30;99.90;;;;;;5035286;28;19909;-77
2021/11/01 05:21:18;;;;;;;;;;;9.30;99.90;;;;;;5035525;28;19955;-78
2021/11/01 05:23:53;;;;;;;;;;;9.30;99.90;;;;;;5033586;28;19909;-79
2021/11/01 05:26:37;;;;;;;;;;;9.30;99.90;;;;;;5035265;28;20285;-79
2021/11/01 05:29:05;;;;;;;;;;;9.30;99.90;;;;;;5035096;28;19940;-79
2021/11/01 05:31:33;;;;;;;;;;;9.30;99.90;;;;;;5034988;28;19909;-79
2021/11/01 05:34:01;;;;;;;;;;;9.30;99.90;;;;;;5035263;28;19905;-79
2021/11/01 05:36:28;;;;;;;;;;;9.20;99.90;;;;;;5034874;28;19905;-79
2021/11/01 05:38:53;;;;;;;;;;;9.20;99.90;;;;;;5034049;28;19988;-78
2021/11/01 05:41:19;;;;;;;;;;;9.10;99.90;;;;;;5034872;28;19995;-78
2021/11/01 05:43:45;;;;;;;;;;;9.10;99.90;;;;;;5034791;28;19905;-78
2021/11/01 05:46:12;;;;;;;;;;;9.10;99.90;;;;;;5034677;28;19909;-79
2021/11/01 05:48:38;;;;;;;;;;;9.10;99.90;;;;;;5034810;28;20297;-78
2021/11/01 05:51:06;;;;;;;;;;;9.10;99.90;;;;;;5034586;28;19905;-78
2021/11/01 05:53:36;;;;;;;;;;;9.00;99.90;;;;;;5034767;28;19905;-79
2021/11/01 05:56:19;;;;;;;;;;;9.00;99.90;;;;;;5032980;28;19904;-78
2021/11/01 05:58:59;;;;;;;;;;;9.00;99.90;;;;;;5034588;28;19915;-79
2021/11/01 06:07:05;;;;;;;;;;;8.90;99.90;;;;;;5029999;28;20277;-79
2021/11/01 06:15:02;;;;;;;;;;;8.90;99.90;;;;;;5033871;28;19931;-78
2021/11/01 06:17:27;;;;;;;;;;;8.90;99.90;;;;;;5034133;28;19905;-78
2021/11/01 06:19:53;;;;;;;;;;;8.90;99.90;;;;;;5049399;28;20411;-79
2021/11/01 06:22:18;;;;;;;;;;;8.90;99.90;;;;;;5034031;28;20277;-78
2021/11/01 06:24:56;;;;;;;;;;;8.90;99.90;;;;;;5034081;28;19905;-77
2021/11/01 06:27:22;;;;;;;;;;;8.90;99.90;;;;;;5034220;28;20404;-79
2021/11/01 06:40:49;;;;;;;;;;;9.00;99.90;;;;;;5033830;28;19916;-79
2021/11/01 06:51:33;;;;;;;;;;;8.90;99.90;;;;;;5011658;28;19905;-80
2021/11/01 07:15:29;;;;;;;;;;;9.50;99.90;;;;;;5033574;28;19967;-77
2021/11/01 07:18:07;;;;;;;;;;;9.60;99.90;;;;;;5031812;28;19909;-76
2021/11/01 07:20:47;;;;;;;;;;;9.90;99.90;;;;;;5031858;28;20407;-79
2021/11/01 07:26:11;;;;;;;;;;;9.60;99.90;;;;;;5033085;28;19988;-79
2021/11/01 08:41:42;;;;;;;;;;;13.40;99.30;;;;;;5035707;28;19912;-80
2021/11/01 09:05:56;;;;;;;;;;;12.50;99.90;;;;;;5035551;28;19909;-78
2021/11/01 09:19:14;;;;;;;;;;;12.50;99.90;;;;;;5034909;28;19959;-77
2021/11/01 09:22:04;;;;;;;;;;;12.20;99.90;;;;;;5035286;28;20305;-79
2021/11/01 09:24:40;;;;;;;;;;;12.10;99.90;;;;;;5035096;28;19905;-78
2021/11/01 09:27:12;;;;;;;;;;;12.30;99.90;;;;;;5033562;28;19959;-78
2021/11/01 09:37:59;;;;;;;;;;;12.70;99.90;;;;;;5035007;28;19911;-79
2021/11/01 09:43:12;;;;;;;;;;;12.30;99.90;;;;;;5034809;28;19912;-77
2021/11/01 09:45:38;;;;;;;;;;;12.30;99.90;;;;;;5034692;28;19968;-77
2021/11/01 09:48:04;;;;;;;;;;;14.90;99.90;;;;;;5034858;28;19913;-79
2021/11/01 09:50:30;;;;;;;;;;;17.40;99.90;;;;;;5034984;28;19948;-80
2021/11/01 09:52:58;;;;;;;;;;;18.40;94.10;;;;;;5034973;28;19951;-81
2021/11/01 10:00:54;;;;;;;;;;;20.30;83.30;;;;;;5034720;28;19920;-80
2021/11/01 10:03:30;;;;;;;;;;;18.80;87.00;;;;;;5034911;28;19905;-79
2021/11/01 10:05:57;;;;;;;;;;;18.30;88.00;;;;;;5034634;28;19904;-80
2021/11/01 10:08:23;;;;;;;;;;;18.30;89.60;;;;;;5034341;28;19905;-80
2021/11/01 10:10:48;;;;;;;;;;;18.70;87.80;;;;;;5049451;28;19917;-78
2021/11/01 10:13:16;;;;;;;;;;;20.00;85.00;;;;;;5034367;28;19992;-79
2021/11/01 10:18:27;;;;;;;;;;;21.10;78.50;;;;;;5034230;28;20024;-80
2021/11/01 10:20:55;;;;;;;;;;;22.30;75.00;;;;;;5034319;28;20372;-80
2021/11/01 10:23:25;;;;;;;;;;;21.70;74.00;;;;;;5032894;28;19909;-79
2021/11/01 10:25:52;;;;;;;;;;;20.90;73.00;;;;;;5033763;28;19909;-80
2021/11/01 10:28:31;;;;;;;;;;;20.40;75.00;;;;;;5034498;28;19905;-80
2021/11/01 10:31:06;;;;;;;;;;;21.60;72.30;;;;;;5034037;28;19905;-80
2021/11/01 10:33:33;;;;;;;;;;;22.00;71.90;;;;;;5034067;28;19959;-80
2021/11/01 10:35:58;;;;;;;;;;;24.00;69.30;;;;;;5034014;28;19912;-79
2021/11/01 10:38:26;;;;;;;;;;;22.20;66.40;;;;;;5034191;28;20003;-79
2021/11/01 10:46:37;;;;;;;;;;;23.10;66.40;;;;;;5033840;28;19905;-81
2021/11/01 11:13:36;;;;;;;;;;;26.20;52.00;;;;;;5033682;28;19931;-78
2021/11/01 11:16:04;;;;;;;;;;;27.30;52.30;;;;;;5033638;28;19912;-79
2021/11/01 11:18:54;;;;;;;;;;;27.80;51.30;;;;;;5048738;28;19990;-80
2021/11/01 11:24:33;;;;;;;;;;;27.70;47.70;;;;;;5033260;28;19905;-80
2021/11/01 11:27:39;;;;;;;;;;;30.00;49.60;;;;;;5033290;28;19970;-80
2021/11/01 11:38:41;;;;;;;;;;;27.30;50.30;;;;;;5036719;28;19976;-79
2021/11/01 11:44:00;;;;;;;;;;;28.30;47.30;;;;;;5036900;28;19909;-80
2021/11/01 11:49:11;;;;;;;;;;;29.80;45.40;;;;;;5036815;28;19912;-79
2021/11/01 11:51:38;;;;;;;;;;;28.20;46.90;;;;;;5037021;28;19909;-80
2021/11/01 11:54:06;;;;;;;;;;;25.40;48.30;;;;;;5036989;28;19905;-79
2021/11/01 11:56:34;;;;;;;;;;;27.90;48.90;;;;;;5035643;28;19905;-80
2021/11/01 11:59:00;;;;;;;;;;;30.10;46.50;;;;;;5052199;28;19908;-80
2021/11/01 12:01:26;;;;;;;;;;;30.10;46.30;;;;;;5035519;28;19915;-80
2021/11/01 12:03:52;;;;;;;;;;;29.30;45.20;;;;;;5035500;28;19905;-80
2021/11/01 12:06:23;;;;;;;;;;;27.60;46.00;;;;;;5036811;28;19927;-80
2021/11/01 12:09:03;;;;;;;;;;;28.20;47.70;;;;;;5036757;28;19912;-79
2021/11/01 12:11:42;;;;;;;;;;;29.10;46.60;;;;;;5036225;28;19923;-80
2021/11/01 12:14:32;;;;;;;;;;;31.30;44.80;;;;;;5051704;28;19999;-80
2021/11/01 12:17:16;;;;;;;;;;;30.60;43.20;;;;;;5051735;28;20388;-80
2021/11/01 12:19:42;;;;;;;;;;;29.80;45.00;;;;;;5051552;28;19916;-79
2021/11/01 12:22:09;;;;;;;;;;;26.70;46.70;;;;;;5036562;28;20277;-79
2021/11/01 12:24:36;;;;;;;;;;;23.70;52.00;;;;;;5036631;28;19940;-79
2021/11/01 12:27:06;;;;;;;;;;;24.80;53.00;;;;;;5036325;28;19931;-78
2021/11/01 12:29:32;;;;;;;;;;;22.70;53.60;;;;;;5034949;28;19999;-78
2021/11/01 12:32:03;;;;;;;;;;;22.50;56.40;;;;;;5036172;28;19905;-80
2021/11/01 12:34:29;;;;;;;;;;;20.30;59.40;;;;;;5036205;28;20278;-79
2021/11/01 12:56:57;;;;;;;;;;;17.90;69.10;;;;;;5036194;28;19905;-80
2021/11/01 12:58:01;;;;;;;;;;;18.10;67.80;;;;;;5035660;28;19920;-78
2021/11/01 13:00:36;;;;;;;;;;;18.30;66.30;;;;;;5050973;28;19905;-79
2021/11/01 13:03:09;;;;;;;;;;;19.00;65.20;;;;;;5035785;28;19908;-79
2021/11/01 13:05:42;;;;;;;;;;;20.40;62.10;;;;;;5035658;28;19905;-77
2021/11/01 13:08:10;;;;;;;;;;;21.50;58.70;;;;;;5034058;28;19909;-80
2021/11/01 13:10:40;;;;;;;;;;;22.40;56.00;;;;;;5035395;28;19921;-80
2021/11/01 13:18:42;;;;;;;;;;;20.50;59.20;;;;;;5035276;28;19919;-80
2021/11/01 13:21:20;;;;;;;;;;;20.10;61.20;;;;;;5035353;28;19964;-80
2021/11/01 13:23:50;;;;;;;;;;;19.20;63.30;;;;;;5035487;28;20357;-78
2021/11/01 13:26:35;;;;;;;;;;;17.90;65.60;;;;;;5033888;28;20353;-79
2021/11/01 13:29:23;;;;;;;;;;;17.30;69.00;;;;;;5035258;28;19905;-79
2021/11/01 13:37:25;;;;;;;;;;;14.80;99.90;;;;;;5015543;28;19909;-79
2021/11/01 13:39:59;;;;;;;;;;;14.60;99.70;;;;;;5050080;28;19913;-79
2021/11/01 13:42:25;;;;;;;;;;;15.50;97.20;;;;;;5050162;28;19991;-79
2021/11/01 13:44:50;;;;;;;;;;;17.60;94.30;;;;;;5034807;28;19941;-79
2021/11/01 13:47:17;;;;;;;;;;;20.30;83.40;;;;;;5034789;28;19912;-80
2021/11/01 13:49:46;;;;;;;;;;;20.80;73.80;;;;;;5034699;28;19920;-79
2021/11/01 13:52:37;;;;;;;;;;;20.80;71.50;;;;;;5034628;28;20369;-78
2021/11/01 13:57:30;;;;;;;;;;;19.70;71.30;;;;;;5034606;28;19905;-79
2021/11/01 14:00:15;;;;;;;;;;;19.20;76.00;;;;;;5033772;28;20357;-80
2021/11/01 14:03:41;;;;;;;;;;;18.70;77.70;;;;;;5034662;28;20070;-78
2021/11/01 15:06:31;;;;;;;;;;;14.80;92.20;;;;;;5034204;28;20365;-79
2021/11/01 15:12:58;;;;;;;;;;;14.80;93.10;;;;;;5037213;28;19911;-79
2021/11/01 15:29:21;;;;;;;;;;;15.00;87.10;;;;;;5037095;28;19927;-79
2021/11/01 15:34:45;;;;;;;;;;;15.10;85.70;;;;;;5037502;28;19928;-79
2021/11/01 15:37:17;;;;;;;;;;;15.10;86.10;;;;;;5037058;28;19912;-78
2021/11/01 16:20:27;;;;;;;;;;;13.20;94.00;;;;;;5036215;28;19941;-79
2021/11/01 16:23:06;;;;;;;;;;;12.80;94.90;;;;;;5051120;28;19998;-79
2021/11/01 16:25:32;;;;;;;;;;;12.70;95.60;;;;;;5036907;28;19916;-78
2021/11/01 16:27:58;;;;;;;;;;;12.50;96.00;;;;;;5036248;28;19905;-78
2021/11/01 16:30:26;;;;;;;;;;;12.50;96.60;;;;;;5036273;28;20291;-79
2021/11/01 16:32:56;;;;;;;;;;;12.40;97.00;;;;;;5036134;28;19909;-79
2021/11/01 16:35:24;;;;;;;;;;;12.40;97.30;;;;;;5036278;28;20353;-77
2021/11/01 16:38:02;;;;;;;;;;;12.30;97.00;;;;;;5034716;28;19909;-78
2021/11/01 16:40:28;;;;;;;;;;;12.20;96.10;;;;;;5036255;28;20420;-79
2021/11/01 16:42:54;;;;;;;;;;;12.10;95.60;;;;;;5035944;28;19905;-78
2021/11/01 16:45:31;;;;;;;;;;;12.10;96.10;;;;;;5035955;28;20000;-79
2021/11/01 16:47:58;;;;;;;;;;;12.00;96.60;;;;;;5035976;28;20042;-78
2021/11/01 16:50:24;;;;;;;;;;;11.90;95.80;;;;;;5035809;28;19913;-78
2021/11/01 16:52:50;;;;;;;;;;;12.00;96.00;;;;;;5036096;28;19905;-80
2021/11/01 16:55:28;;;;;;;;;;;11.80;96.10;;;;;;5035919;28;19905;-78
2021/11/01 16:57:57;;;;;;;;;;;11.80;96.30;;;;;;5035754;28;19905;-77
2021/11/01 17:24:23;;;;;;;;;;;11.50;99.20;;;;;;5035319;28;19909;-76
2021/11/01 18:44:01;;;;;;;;;;;10.40;99.90;;;;;;5033834;28;19923;-78
2021/11/01 18:51:50;;;;;;;;;;;10.30;99.90;;;;;;5033847;28;19919;-79
2021/11/01 18:54:18;;;;;;;;;;;10.30;99.90;;;;;;5033726;28;19905;-79
2021/11/01 18:56:44;;;;;;;;;;;10.20;99.90;;;;;;5033623;28;19912;-77
2021/11/01 18:59:10;;;;;;;;;;;10.30;99.90;;;;;;5033604;28;19923;-79
2021/11/01 19:01:41;;;;;;;;;;;10.20;99.90;;;;;;5048875;28;19920;-78
2021/11/01 19:04:14;;;;;;;;;;;10.30;99.90;;;;;;5033653;28;19999;-78
2021/11/01 19:06:48;;;;;;;;;;;10.10;99.90;;;;;;5048658;28;19944;-78
2021/11/01 20:04:37;;;;;;;;;;;10.60;99.90;;;;;;5036856;28;19914;-79
2021/11/01 20:10:12;;;;;;;;;;;10.50;99.90;;;;;;5036538;28;19912;-79
2021/11/01 20:12:58;;;;;;;;;;;10.60;99.90;;;;;;5036458;28;19913;-77
2021/11/01 21:24:36;;;;;;;;;;;10.00;99.90;;;;;;5035110;28;19912;-80
2021/11/01 21:27:03;;;;;;;;;;;10.00;99.90;;;;;;5033713;28;19909;-80
2021/11/01 21:29:29;;;;;;;;;;;9.90;99.90;;;;;;5035133;28;20362;-79
2021/11/01 21:31:55;;;;;;;;;;;9.60;99.90;;;;;;5035137;28;19912;-80
2021/11/01 21:34:42;;;;;;;;;;;9.50;99.90;;;;;;5033812;28;19905;-77
2021/11/01 21:37:09;;;;;;;;;;;9.50;99.90;;;;;;5050088;28;19912;-79
2021/11/01 21:39:35;;;;;;;;;;;9.60;99.90;;;;;;5034856;28;19976;-78
2021/11/01 21:42:02;;;;;;;;;;;9.60;99.90;;;;;;5033635;28;19905;-78
2021/11/01 21:44:29;;;;;;;;;;;9.60;99.90;;;;;;5034850;28;19955;-78
2021/11/01 21:46:55;;;;;;;;;;;9.60;99.90;;;;;;5034828;28;19905;-79
2021/11/01 21:49:21;;;;;;;;;;;9.70;99.90;;;;;;5034780;28;20282;-79
2021/11/01 21:51:47;;;;;;;;;;;9.70;99.90;;;;;;5035274;28;19912;-79
2021/11/01 21:56:44;;;;;;;;;;;9.60;99.90;;;;;;5034618;28;20276;-77
2021/11/01 22:21:18;;;;;;;;;;;9.40;99.90;;;;;;5023462;28;20343;-79
2021/11/01 22:23:57;;;;;;;;;;;9.40;99.90;;;;;;5032880;28;20000;-79
2021/11/01 22:34:37;;;;;;;;;;;9.20;99.90;;;;;;5033834;28;19955;-79
2021/11/01 22:55:43;;;;;;;;;;;9.20;99.90;;;;;;5014445;28;19906;-79
2021/11/01 22:58:09;;;;;;;;;;;9.10;99.90;;;;;;5048624;28;20369;-80
2021/11/01 23:00:51;;;;;;;;;;;9.00;99.90;;;;;;5033623;28;19905;-80
2021/11/01 23:03:45;;;;;;;;;;;9.00;99.90;;;;;;5032361;28;20331;-79
2021/11/01 23:06:16;;;;;;;;;;;9.00;99.90;;;;;;5033194;28;19967;-79
2021/11/01 23:33:22;;;;;;;;;;;8.60;99.90;;;;;;5035303;28;19912;-79
2021/11/01 23:35:48;;;;;;;;;;;8.50;99.90;;;;;;5037385;28;19905;-79
2021/11/01 23:38:14;;;;;;;;;;;8.50;99.90;;;;;;5037082;28;20288;-79
2021/11/01 23:40:41;;;;;;;;;;;8.50;99.90;;;;;;5052568;28;19905;-79
2021/11/01 23:43:07;;;;;;;;;;;8.50;99.90;;;;;;5037370;28;19997;-79
2021/11/01 23:45:37;;;;;;;;;;;8.50;99.90;;;;;;5037241;28;19944;-79
2021/11/01 23:48:03;;;;;;;;;;;8.50;99.90;;;;;;5037301;28;19992;-79
2021/11/01 23:50:33;;;;;;;;;;;8.50;99.90;;;;;;5052361;28;19947;-78
2021/11/01 23:53:05;;;;;;;;;;;8.40;99.90;;;;;;5052410;28;19905;-80
2021/11/01 23:55:31;;;;;;;;;;;8.30;99.90;;;;;;5035430;28;19939;-80
2021/11/01 23:57:57;;;;;;;;;;;8.30;99.90;;;;;;5035650;28;19955;-79
